Time;durP1;ratioP1;P1;durP2;ratioP2;P2;SDS_P1;SDS_P2;PMS_P1;PMS_P2;Temp;Humidity;BMP_temperature;BMP_pressure;BME280_temperature;BME280_humidity;BME280_pressure;Samples;Min_cycle;Max_cycle;Signal;HPM_P1;HPM_P2
2022/07/26 00:02:09;;;;;;;8.57;7.87;;;20.70;1.00;;;;;;6267481;28;20714;-54
2022/07/26 00:05:19;;;;;;;9.13;8.23;;;20.70;1.00;;;;;;6274822;28;20272;-53
2022/07/26 00:08:24;;;;;;;8.73;8.10;;;20.60;1.00;;;;;;6284168;28;20327;-54
2022/07/26 00:11:27;;;;;;;9.33;8.33;;;20.60;1.00;;;;;;6252633;28;20698;-53
2022/07/26 00:14:30;;;;;;;8.77;7.90;;;20.50;1.00;;;;;;6284467;28;20260;-54
2022/07/26 00:17:33;;;;;;;9.20;7.63;;;20.60;1.00;;;;;;6299402;28;20476;-54
2022/07/26 00:20:36;;;;;;;7.37;6.87;;;20.50;1.00;;;;;;6277862;28;20753;-55
2022/07/26 00:23:42;;;;;;;8.00;7.40;;;20.50;1.00;;;;;;6281530;28;20237;-54
2022/07/26 00:26:45;;;;;;;6.63;6.23;;;20.40;1.00;;;;;;6274794;28;20367;-54
2022/07/26 00:29:47;;;;;;;8.20;7.37;;;20.30;1.00;;;;;;6295541;28;20237;-55
2022/07/26 00:32:51;;;;;;;7.10;6.50;;;20.30;1.00;;;;;;6274779;28;20234;-54
2022/07/26 00:35:54;;;;;;;7.83;7.20;;;20.30;1.00;;;;;;6283383;28;20267;-55
2022/07/26 00:38:58;;;;;;;7.63;7.13;;;20.20;1.00;;;;;;6298497;28;20327;-55
2022/07/26 00:42:01;;;;;;;7.67;7.13;;;20.20;1.00;;;;;;6289251;28;20283;-56
2022/07/26 00:45:07;;;;;;;7.40;6.70;;;20.20;1.00;;;;;;6272767;28;20367;-55
2022/07/26 00:48:10;;;;;;;7.33;6.83;;;20.20;1.00;;;;;;6282663;28;20310;-54
2022/07/26 00:51:13;;;;;;;8.00;7.40;;;20.10;1.00;;;;;;6289565;28;20366;-54
2022/07/26 00:54:18;;;;;;;8.70;8.10;;;20.10;1.00;;;;;;6282175;28;20236;-54
2022/07/26 00:57:21;;;;;;;8.10;7.50;;;20.10;1.00;;;;;;6280040;28;20296;-54
2022/07/26 01:00:26;;;;;;;9.30;8.33;;;20.10;1.00;;;;;;6281833;28;20260;-58
2022/07/26 01:03:29;;;;;;;7.77;7.23;;;20.20;1.00;;;;;;6276236;28;20230;-55
2022/07/26 01:06:42;;;;;;;7.47;7.07;;;20.10;1.00;;;;;;6279598;28;20232;-54
2022/07/26 01:09:46;;;;;;;8.13;7.37;;;20.10;1.00;;;;;;6259266;28;20729;-54
2022/07/26 01:12:49;;;;;;;7.40;6.90;;;20.10;1.00;;;;;;6266315;28;20322;-55
2022/07/26 01:15:52;;;;;;;9.03;8.33;;;20.10;1.00;;;;;;6293741;28;20377;-56
2022/07/26 01:18:55;;;;;;;9.90;8.53;;;20.10;1.00;;;;;;6274306;28;21119;-53
2022/07/26 01:22:00;;;;;;;9.13;8.30;;;20.10;1.00;;;;;;6278686;28;20243;-54
2022/07/26 01:25:03;;;;;;;9.03;8.20;;;20.10;1.00;;;;;;6279735;28;20360;-56
2022/07/26 01:28:06;;;;;;;8.97;8.30;;;20.10;1.00;;;;;;6281339;28;20252;-55
2022/07/26 01:31:09;;;;;;;9.17;8.37;;;20.10;1.00;;;;;;6287952;28;20248;-54
2022/07/26 01:34:12;;;;;;;8.77;8.00;;;20.10;1.00;;;;;;6273028;28;20425;-53
2022/07/26 01:37:17;;;;;;;9.93;8.93;;;20.10;1.00;;;;;;6276154;28;20345;-55
2022/07/26 01:40:20;;;;;;;9.23;8.43;;;20.10;1.00;;;;;;6276021;28;20650;-54
2022/07/26 01:43:23;;;;;;;8.77;8.00;;;20.00;1.00;;;;;;6271625;28;20240;-53
2022/07/26 01:46:26;;;;;;;8.47;7.77;;;20.00;1.00;;;;;;6283225;28;20678;-53
2022/07/26 01:49:29;;;;;;;8.47;7.77;;;20.00;1.00;;;;;;6272618;28;20236;-53
2022/07/26 01:52:34;;;;;;;8.07;7.43;;;20.00;1.00;;;;;;6276482;28;20773;-53
2022/07/26 01:55:37;;;;;;;8.60;7.90;;;19.90;1.00;;;;;;6277511;28;20676;-54
2022/07/26 01:58:40;;;;;;;7.93;7.33;;;19.90;1.00;;;;;;6302428;28;20374;-55
2022/07/26 02:01:43;;;;;;;9.67;8.77;;;19.90;1.00;;;;;;6285164;28;21602;-55
2022/07/26 02:04:58;;;;;;;10.00;8.87;;;19.80;1.00;;;;;;6279814;28;20255;-54
2022/07/26 02:08:03;;;;;;;9.73;8.83;;;19.80;1.00;;;;;;6274405;28;20683;-54
2022/07/26 02:11:06;;;;;;;11.53;10.53;;;19.80;1.00;;;;;;6265680;28;20320;-56
2022/07/26 02:14:09;;;;;;;12.67;11.37;;;19.80;1.00;;;;;;6274987;28;20264;-54
2022/07/26 02:17:27;;;;;;;12.63;11.63;;;19.90;1.00;;;;;;6257754;28;20244;-54
2022/07/26 02:20:32;;;;;;;15.57;12.50;;;19.90;1.00;;;;;;6298492;28;20324;-54
2022/07/26 02:23:36;;;;;;;13.10;11.93;;;19.80;1.00;;;;;;6275518;28;20294;-54
2022/07/26 02:26:43;;;;;;;11.83;10.77;;;19.80;1.00;;;;;;6286120;28;20240;-54
2022/07/26 02:29:47;;;;;;;11.27;10.47;;;19.80;1.00;;;;;;6295300;28;20288;-54
2022/07/26 02:32:50;;;;;;;10.63;9.80;;;19.70;1.00;;;;;;6282585;28;20341;-54
2022/07/26 02:35:53;;;;;;;11.03;10.13;;;19.60;1.00;;;;;;6285382;28;20312;-54
2022/07/26 02:38:57;;;;;;;9.03;8.37;;;19.60;1.00;;;;;;6277522;28;20244;-55
2022/07/26 02:42:02;;;;;;;9.67;8.97;;;19.50;1.00;;;;;;6284213;28;20329;-55
2022/07/26 02:45:06;;;;;;;9.47;8.83;;;19.50;1.00;;;;;;6274564;28;20356;-56
2022/07/26 02:48:09;;;;;;;10.10;9.13;;;19.50;1.00;;;;;;6279265;28;20312;-55
2022/07/26 02:51:11;;;;;;;10.17;9.17;;;19.50;1.00;;;;;;6298736;28;20706;-55
2022/07/26 02:54:16;;;;;;;8.87;8.27;;;19.40;1.00;;;;;;6284095;28;20299;-54
2022/07/26 02:57:19;;;;;;;9.03;8.43;;;19.40;1.00;;;;;;6287191;28;20237;-54
2022/07/26 03:00:25;;;;;;;8.03;7.43;;;19.30;1.00;;;;;;6300881;28;20789;-55
2022/07/26 03:03:28;;;;;;;9.13;8.53;;;19.30;1.00;;;;;;6281598;28;20323;-60
2022/07/26 03:06:31;;;;;;;11.93;10.03;;;19.30;1.00;;;;;;6295812;28;20274;-56
2022/07/26 03:09:35;;;;;;;10.43;9.53;;;19.20;1.00;;;;;;6314730;28;20380;-56
2022/07/26 03:12:38;;;;;;;10.23;9.40;;;19.20;1.00;;;;;;6271752;28;20317;-56
2022/07/26 03:15:41;;;;;;;10.70;9.93;;;19.20;1.00;;;;;;6273367;28;20757;-55
2022/07/26 03:18:44;;;;;;;10.83;9.97;;;19.20;1.00;;;;;;6280200;28;20241;-55
2022/07/26 03:21:47;;;;;;;11.50;10.70;;;19.20;1.00;;;;;;6287334;28;20836;-54
2022/07/26 03:24:52;;;;;;;10.57;9.87;;;19.20;1.00;;;;;;6282063;28;20366;-55
2022/07/26 03:27:56;;;;;;;10.40;9.57;;;19.10;1.00;;;;;;6272847;28;20414;-56
2022/07/26 03:31:00;;;;;;;10.83;9.93;;;19.10;1.00;;;;;;6292517;28;20717;-55
2022/07/26 03:34:03;;;;;;;9.93;9.20;;;19.10;1.00;;;;;;6270320;28;20243;-56
2022/07/26 03:37:06;;;;;;;10.67;9.07;;;19.10;1.00;;;;;;6287869;28;20226;-54
2022/07/26 03:40:11;;;;;;;10.03;9.07;;;19.10;1.00;;;;;;6285099;28;20236;-54
2022/07/26 03:43:14;;;;;;;8.90;8.40;;;19.10;1.00;;;;;;6280342;28;20233;-56
2022/07/26 03:46:21;;;;;;;9.40;8.53;;;19.10;1.00;;;;;;6276872;28;20739;-55
2022/07/26 03:49:24;;;;;;;8.53;7.70;;;19.10;1.00;;;;;;6281347;28;20241;-54
2022/07/26 03:52:27;;;;;;;9.23;7.20;;;19.00;1.00;;;;;;6286851;28;20241;-55
2022/07/26 03:58:52;;;;;;;7.10;6.50;;;19.00;1.00;;;;;;6278282;28;20730;-53
2022/07/26 04:01:55;;;;;;;6.23;5.67;;;19.00;1.00;;;;;;6275871;28;20290;-54
2022/07/26 04:04:58;;;;;;;7.67;6.10;;;19.00;1.00;;;;;;6291230;28;20435;-56
2022/07/26 04:08:01;;;;;;;6.57;5.80;;;19.00;1.00;;;;;;6281536;28;20392;-55
2022/07/26 04:11:06;;;;;;;5.87;5.37;;;19.00;1.00;;;;;;6275047;28;20579;-55
2022/07/26 04:14:09;;;;;;;5.80;5.10;;;19.00;1.00;;;;;;6284544;28;20700;-55
2022/07/26 04:17:13;;;;;;;6.13;5.53;;;19.00;1.00;;;;;;6279444;28;20603;-54
2022/07/26 04:20:16;;;;;;;5.50;5.00;;;19.00;1.00;;;;;;6286194;28;20237;-54
2022/07/26 04:23:19;;;;;;;8.23;5.50;;;18.90;1.00;;;;;;6284050;28;20237;-55
2022/07/26 04:26:24;;;;;;;6.27;5.67;;;19.00;1.00;;;;;;6281004;28;20330;-55
2022/07/26 04:29:27;;;;;;;6.17;5.20;;;19.00;1.00;;;;;;6278866;28;20415;-55
2022/07/26 04:32:30;;;;;;;5.20;4.73;;;19.00;1.00;;;;;;6281796;28;20248;-55
2022/07/26 04:35:33;;;;;;;4.97;4.57;;;19.00;1.00;;;;;;6283938;28;20237;-55
2022/07/26 04:38:36;;;;;;;5.10;4.80;;;19.00;1.00;;;;;;6280982;28;20237;-55
2022/07/26 04:41:40;;;;;;;8.47;5.43;;;19.00;1.00;;;;;;6279514;28;20328;-55
2022/07/26 04:44:43;;;;;;;8.53;5.20;;;19.10;1.00;;;;;;6264307;28;20363;-55
2022/07/26 04:47:49;;;;;;;5.83;5.03;;;19.10;1.00;;;;;;6277156;28;20238;-55
2022/07/26 04:50:53;;;;;;;8.20;5.13;;;19.10;1.00;;;;;;6279411;28;20237;-55
2022/07/26 04:53:55;;;;;;;5.13;4.73;;;19.20;1.00;;;;;;6286077;28;20701;-57
2022/07/26 04:57:00;;;;;;;6.60;5.00;;;19.20;1.00;;;;;;6274134;28;20291;-56
2022/07/26 05:00:07;;;;;;;5.37;4.83;;;19.20;1.00;;;;;;6264488;28;20288;-58
2022/07/26 05:03:26;;;;;;;5.63;5.33;;;19.20;1.00;;;;;;6269872;28;20234;-55
2022/07/26 05:06:31;;;;;;;5.90;5.40;;;19.40;1.00;;;;;;6269928;28;20379;-54
2022/07/26 05:09:33;;;;;;;7.97;5.20;;;19.40;1.00;;;;;;6271038;28;20283;-55
2022/07/26 05:12:38;;;;;;;5.20;4.80;;;19.50;1.00;;;;;;6279831;28;20275;-56
2022/07/26 05:15:41;;;;;;;8.83;6.20;;;19.50;1.00;;;;;;6273825;28;20534;-57
2022/07/26 05:18:46;;;;;;;10.43;6.23;;;19.60;1.00;;;;;;6287076;28;20314;-55
2022/07/26 05:21:51;;;;;;;6.17;5.57;;;19.60;1.00;;;;;;6282653;28;20341;-60
2022/07/26 05:24:54;;;;;;;6.23;5.60;;;19.50;1.00;;;;;;6284492;28;20229;-55
2022/07/26 05:27:58;;;;;;;6.57;5.63;;;19.50;1.00;;;;;;6279900;28;20472;-56
2022/07/26 05:31:01;;;;;;;6.63;5.40;;;19.50;1.00;;;;;;6275217;28;20303;-54
2022/07/26 05:34:04;;;;;;;12.23;5.90;;;19.70;1.00;;;;;;6285733;28;20435;-55
2022/07/26 05:37:08;;;;;;;7.43;5.90;;;19.90;1.00;;;;;;6276339;28;20613;-55
2022/07/26 05:40:13;;;;;;;7.23;5.73;;;19.90;1.00;;;;;;6281532;28;20818;-56
2022/07/26 05:43:17;;;;;;;6.77;5.73;;;19.90;1.00;;;;;;6287453;28;20565;-54
2022/07/26 05:46:20;;;;;;;8.13;5.80;;;19.80;1.00;;;;;;6273959;28;20237;-55
2022/07/26 05:49:24;;;;;;;8.43;5.63;;;19.80;1.00;;;;;;6278460;28;20659;-56
2022/07/26 05:52:27;;;;;;;5.63;4.90;;;19.90;1.00;;;;;;6277710;28;20248;-56
2022/07/26 05:55:30;;;;;;;7.17;5.23;;;20.20;1.00;;;;;;6286459;28;20241;-56
2022/07/26 05:58:36;;;;;;;5.40;4.90;;;20.50;1.00;;;;;;6281694;28;20673;-56
2022/07/26 06:01:38;;;;;;;8.20;5.53;;;20.60;1.00;;;;;;6267439;28;20383;-56
2022/07/26 06:04:42;;;;;;;8.57;5.43;;;20.60;1.00;;;;;;6283063;28;20259;-55
2022/07/26 06:07:49;;;;;;;5.73;5.23;;;20.60;1.00;;;;;;6282482;28;20806;-55
2022/07/26 06:10:53;;;;;;;7.20;4.30;;;20.70;1.00;;;;;;6273297;28;20375;-56
2022/07/26 06:13:57;;;;;;;5.30;4.43;;;20.70;1.00;;;;;;6273012;28;20382;-56
2022/07/26 06:17:01;;;;;;;7.17;4.60;;;20.70;1.00;;;;;;6280904;28;20267;-55
2022/07/26 06:20:05;;;;;;;6.87;4.43;;;21.00;1.00;;;;;;6264934;28;20469;-57
2022/07/26 06:23:09;;;;;;;6.10;4.30;;;21.20;1.00;;;;;;6270875;28;20597;-57
2022/07/26 06:26:12;;;;;;;4.83;4.17;;;21.30;1.00;;;;;;6281649;28;20318;-56
2022/07/26 06:29:16;;;;;;;6.40;3.80;;;21.60;1.00;;;;;;6269002;28;20241;-56
2022/07/26 06:32:19;;;;;;;4.90;4.37;;;22.00;1.00;;;;;;6286724;28;20312;-55
2022/07/26 06:35:22;;;;;;;11.23;4.13;;;22.20;1.00;;;;;;6270451;28;20525;-56
2022/07/26 06:38:26;;;;;;;7.70;3.80;;;22.40;1.00;;;;;;6281291;28;20245;-57
2022/07/26 06:41:29;;;;;;;7.73;3.43;;;22.70;1.00;;;;;;6278848;28;20515;-56
2022/07/26 06:44:33;;;;;;;6.57;3.73;;;22.70;1.00;;;;;;6276998;28;20320;-56
2022/07/26 06:47:36;;;;;;;7.77;4.10;;;22.60;1.00;;;;;;6281787;28;20321;-56
2022/07/26 06:50:39;;;;;;;6.43;4.00;;;22.60;1.00;;;;;;6278455;28;20392;-56
2022/07/26 06:53:42;;;;;;;7.43;4.13;;;22.50;1.00;;;;;;6276839;28;20584;-58
2022/07/26 06:56:45;;;;;;;6.20;3.50;;;22.50;1.00;;;;;;6286024;28;20244;-56
2022/07/26 06:59:49;;;;;;;4.40;3.13;;;22.50;1.00;;;;;;6278456;28;20755;-55
2022/07/26 07:02:52;;;;;;;5.63;3.70;;;22.70;1.00;;;;;;6252066;28;20343;-55
2022/07/26 07:05:55;;;;;;;5.30;3.90;;;22.90;1.00;;;;;;6285087;28;20301;-56
2022/07/26 07:08:58;;;;;;;7.77;3.73;;;23.10;1.00;;;;;;6285731;28;20260;-56
2022/07/26 07:12:02;;;;;;;9.70;3.70;;;23.20;1.00;;;;;;6274042;28;20849;-56
2022/07/26 07:15:13;;;;;;;5.17;3.37;;;23.10;1.00;;;;;;6285880;28;20923;-61
2022/07/26 07:18:16;;;;;;;7.80;3.57;;;23.10;1.00;;;;;;6283689;28;20229;-55
2022/07/26 07:21:19;;;;;;;5.40;3.00;;;22.90;1.00;;;;;;6279668;28;20855;-56
2022/07/26 07:24:23;;;;;;;10.43;3.53;;;22.90;1.00;;;;;;6284190;28;20259;-54
2022/07/26 07:27:26;;;;;;;3.30;3.10;;;22.80;1.00;;;;;;6283084;28;20673;-56
2022/07/26 07:30:31;;;;;;;6.20;3.27;;;22.90;1.00;;;;;;6266694;28;20324;-58
2022/07/26 07:33:34;;;;;;;8.53;3.23;;;22.90;1.00;;;;;;6278681;28;20410;-55
2022/07/26 07:36:54;;;;;;;6.70;3.10;;;22.80;1.00;;;;;;6277567;28;20236;-56
2022/07/26 07:39:59;;;;;;;4.03;3.40;;;22.80;1.00;;;;;;6277895;28;20261;-56
2022/07/26 07:43:02;;;;;;;6.27;3.50;;;22.80;1.00;;;;;;6277077;28;20240;-56
2022/07/26 07:46:06;;;;;;;5.70;2.93;;;22.70;1.00;;;;;;6282200;28;20232;-55
2022/07/26 07:49:10;;;;;;;6.13;3.10;;;22.60;1.00;;;;;;6287235;28;20265;-55
2022/07/26 07:52:14;;;;;;;3.47;2.97;;;22.60;1.00;;;;;;6280686;28;20684;-55
2022/07/26 07:55:17;;;;;;;5.40;3.27;;;22.70;1.00;;;;;;6281380;28;20243;-55
2022/07/26 07:58:40;;;;;;;4.57;3.27;;;22.60;1.00;;;;;;6274544;28;20511;-55
2022/07/26 08:01:44;;;;;;;7.93;3.20;;;22.80;1.00;;;;;;6280244;28;20274;-56
2022/07/26 08:04:47;;;;;;;3.47;3.20;;;22.90;1.00;;;;;;6282300;28;20229;-56
2022/07/26 08:07:52;;;;;;;3.83;3.20;;;23.00;1.00;;;;;;6281263;28;21086;-56
2022/07/26 08:10:54;;;;;;;6.20;3.27;;;22.90;1.00;;;;;;6267010;28;20745;-56
2022/07/26 08:13:58;;;;;;;5.33;2.97;;;23.00;1.00;;;;;;6277228;28;20761;-56
2022/07/26 08:17:03;;;;;;;3.30;3.00;;;23.10;1.00;;;;;;6277923;28;20317;-56
2022/07/26 08:20:07;;;;;;;5.67;2.43;;;23.30;1.00;;;;;;6292974;28;20310;-57
2022/07/26 08:23:12;;;;;;;3.03;2.80;;;23.40;1.00;;;;;;6275281;28;20267;-55
2022/07/26 08:26:15;;;;;;;6.50;3.30;;;23.30;1.00;;;;;;6273165;28;20390;-57
2022/07/26 08:29:18;;;;;;;5.00;2.83;;;23.20;1.00;;;;;;6285153;28;20324;-56
2022/07/26 08:32:23;;;;;;;3.07;2.57;;;23.20;1.00;;;;;;6281668;28;20320;-55
2022/07/26 08:35:28;;;;;;;3.83;2.70;;;23.00;1.00;;;;;;6281878;28;20320;-55
2022/07/26 08:38:31;;;;;;;5.30;2.70;;;22.90;1.00;;;;;;6275136;28;20237;-56
2022/07/26 08:41:35;;;;;;;2.57;2.47;;;22.90;1.00;;;;;;6278628;28;20240;-55
2022/07/26 08:44:41;;;;;;;2.67;2.30;;;22.80;1.00;;;;;;6279395;28;20256;-60
2022/07/26 08:47:46;;;;;;;4.30;2.60;;;22.80;1.00;;;;;;6281753;28;20244;-56
2022/07/26 08:51:10;;;;;;;5.97;2.50;;;22.80;1.00;;;;;;6277448;28;20232;-56
2022/07/26 08:54:15;;;;;;;3.10;2.90;;;22.90;1.00;;;;;;6274789;28;20238;-56
2022/07/26 08:57:18;;;;;;;4.63;2.80;;;23.10;1.00;;;;;;6281998;28;20308;-56
2022/07/26 09:00:23;;;;;;;4.23;2.77;;;23.30;1.00;;;;;;6259750;28;20550;-56
2022/07/26 09:03:29;;;;;;;2.23;2.13;;;23.20;1.00;;;;;;6264378;28;20244;-56
2022/07/26 09:06:32;;;;;;;4.23;3.00;;;23.20;1.00;;;;;;6269558;28;20244;-56
2022/07/26 09:09:37;;;;;;;3.57;2.37;;;23.20;1.00;;;;;;6279090;28;20318;-56
2022/07/26 09:12:41;;;;;;;5.53;2.37;;;23.30;1.00;;;;;;6270812;28;20971;-56
2022/07/26 09:15:44;;;;;;;2.77;2.57;;;23.20;1.00;;;;;;6258690;28;20258;-55
2022/07/26 09:18:48;;;;;;;5.33;2.90;;;23.20;1.00;;;;;;6275426;28;20240;-56
2022/07/26 09:21:54;;;;;;;3.63;2.53;;;23.20;1.00;;;;;;6275631;28;20261;-56
2022/07/26 09:24:57;;;;;;;2.20;2.17;;;23.50;1.00;;;;;;6272897;28;20393;-56
2022/07/26 09:28:01;;;;;;;2.87;2.53;;;24.00;1.00;;;;;;6275421;28;20771;-56
2022/07/26 09:31:05;;;;;;;2.37;2.10;;;24.00;1.00;;;;;;6263306;28;20313;-56
2022/07/26 09:34:09;;;;;;;4.10;2.50;;;24.00;1.00;;;;;;6278188;28;20249;-56
2022/07/26 09:37:13;;;;;;;3.50;2.40;;;23.80;1.00;;;;;;6272734;28;20237;-56
2022/07/26 09:40:18;;;;;;;6.83;2.60;;;23.60;1.00;;;;;;6277004;28;20267;-55
2022/07/26 09:43:21;;;;;;;2.93;2.20;;;23.50;1.00;;;;;;6278095;28;20312;-56
2022/07/26 09:46:26;;;;;;;2.00;1.90;;;23.50;1.00;;;;;;6270851;28;20746;-56
2022/07/26 09:49:31;;;;;;;9.07;2.53;;;23.50;1.00;;;;;;6279799;28;20241;-55
2022/07/26 09:53:00;;;;;;;2.27;2.00;;;23.50;1.00;;;;;;6273666;28;20320;-56
2022/07/26 09:56:04;;;;;;;3.57;2.20;;;23.60;1.00;;;;;;6268120;28;20715;-57
2022/07/26 09:59:07;;;;;;;4.27;1.97;;;23.90;1.00;;;;;;6279400;28;20328;-57
2022/07/26 10:02:12;;;;;;;2.30;2.20;;;24.20;1.00;;;;;;6264483;28;20479;-57
2022/07/26 10:05:17;;;;;;;2.67;2.23;;;24.50;1.00;;;;;;6264103;28;20345;-56
2022/07/26 10:08:20;;;;;;;2.80;2.57;;;24.70;1.00;;;;;;6277620;28;20394;-57
2022/07/26 10:11:28;;;;;;;3.00;2.57;;;24.80;1.00;;;;;;6265057;28;21960;-59
2022/07/26 10:14:38;;;;;;;2.30;2.17;;;25.00;1.00;;;;;;6263968;28;20732;-56
2022/07/26 10:17:42;;;;;;;2.47;2.20;;;24.80;1.00;;;;;;6269828;28;20233;-56
2022/07/26 10:20:49;;;;;;;2.70;2.50;;;24.50;1.00;;;;;;6279124;28;20333;-57
2022/07/26 10:23:55;;;;;;;2.47;2.27;;;24.20;1.00;;;;;;6276994;28;20531;-56
2022/07/26 10:26:58;;;;;;;2.90;2.53;;;24.20;1.00;;;;;;6285807;28;20379;-57
2022/07/26 10:30:22;;;;;;;3.70;2.00;;;24.30;1.00;;;;;;6262543;28;20383;-56
2022/07/26 10:33:26;;;;;;;2.53;2.33;;;24.50;1.00;;;;;;6268078;28;20726;-57
2022/07/26 10:36:33;;;;;;;2.50;2.30;;;24.70;1.00;;;;;;6285030;28;20283;-58
2022/07/26 10:39:37;;;;;;;6.30;2.50;;;24.80;1.00;;;;;;6274184;28;20339;-57
2022/07/26 10:42:44;;;;;;;3.33;2.50;;;24.80;1.00;;;;;;6283178;28;20280;-57
2022/07/26 10:45:47;;;;;;;2.43;2.23;;;24.90;1.00;;;;;;6284974;28;20237;-57
2022/07/26 10:48:56;;;;;;;3.67;2.33;;;24.80;1.00;;;;;;6278425;28;20245;-57
2022/07/26 10:52:15;;;;;;;5.97;3.13;;;24.80;1.00;;;;;;6278554;28;20236;-57
2022/07/26 10:55:19;;;;;;;2.63;2.27;;;24.60;1.00;;;;;;6286934;28;20249;-57
2022/07/26 10:58:23;;;;;;;3.67;2.10;;;24.40;1.00;;;;;;6283221;28;20335;-56
2022/07/26 11:01:33;;;;;;;2.17;2.07;;;24.30;1.00;;;;;;6265050;28;20324;-56
2022/07/26 11:04:37;;;;;;;2.23;2.13;;;24.40;1.00;;;;;;6291493;28;20238;-56
2022/07/26 11:07:54;;;;;;;3.60;2.80;;;24.50;1.00;;;;;;6281091;28;20237;-57
2022/07/26 11:10:57;;;;;;;2.53;2.33;;;24.60;1.00;;;;;;6268796;28;20691;-56
2022/07/26 11:14:05;;;;;;;2.33;2.23;;;24.40;1.00;;;;;;6275913;28;20332;-56
2022/07/26 11:17:09;;;;;;;4.23;2.40;;;24.20;1.00;;;;;;6281431;28;20263;-55
2022/07/26 11:20:24;;;;;;;2.57;2.37;;;24.30;1.00;;;;;;6268986;28;20737;-57
2022/07/26 11:23:35;;;;;;;4.53;2.63;;;24.40;1.00;;;;;;6272598;28;20242;-56
2022/07/26 11:26:41;;;;;;;2.67;2.40;;;24.80;1.00;;;;;;6264746;28;20292;-58
2022/07/26 11:29:44;;;;;;;4.83;2.80;;;25.00;1.00;;;;;;6275714;28;20603;-55
2022/07/26 11:32:52;;;;;;;2.57;2.37;;;25.20;1.00;;;;;;6276468;28;22247;-58
2022/07/26 11:35:55;;;;;;;3.90;2.90;;;25.10;1.00;;;;;;6272198;28;20661;-56
2022/07/26 11:39:01;;;;;;;2.80;2.60;;;25.30;1.00;;;;;;6283997;28;20291;-55
2022/07/26 11:42:06;;;;;;;3.30;3.00;;;25.40;1.00;;;;;;6278666;28;20256;-56
2022/07/26 11:45:10;;;;;;;3.03;2.70;;;25.40;1.00;;;;;;6262849;28;20233;-55
2022/07/26 11:48:13;;;;;;;3.40;2.50;;;25.50;1.00;;;;;;6249804;28;20357;-57
2022/07/26 11:51:17;;;;;;;3.20;2.90;;;25.20;1.00;;;;;;6283425;28;20264;-56
2022/07/26 11:54:23;;;;;;;3.00;2.80;;;25.10;1.00;;;;;;6289967;28;20289;-56
2022/07/26 11:57:29;;;;;;;3.10;2.73;;;24.90;1.00;;;;;;6277818;28;20233;-57
2022/07/26 12:00:33;;;;;;;3.40;2.70;;;25.00;1.00;;;;;;6280929;28;20268;-58
2022/07/26 12:03:36;;;;;;;3.87;3.10;;;25.10;1.00;;;;;;6280299;28;20333;-56
2022/07/26 12:06:40;;;;;;;4.07;2.73;;;25.00;1.00;;;;;;6282939;28;20616;-58
2022/07/26 12:09:48;;;;;;;4.90;3.00;;;24.90;1.00;;;;;;6290619;28;20843;-57
2022/07/26 12:13:06;;;;;;;3.00;2.80;;;24.80;1.00;;;;;;6286253;28;20373;-57
2022/07/26 12:16:09;;;;;;;2.83;2.57;;;24.80;1.00;;;;;;6277639;28;20294;-56
2022/07/26 12:19:29;;;;;;;7.70;3.20;;;24.70;1.00;;;;;;6287953;28;20237;-56
2022/07/26 12:22:32;;;;;;;4.10;2.43;;;24.60;1.00;;;;;;6284476;28;20229;-56
2022/07/26 12:25:37;;;;;;;3.00;2.80;;;24.40;1.00;;;;;;6277561;28;20735;-56
2022/07/26 12:28:48;;;;;;;7.10;2.90;;;23.90;1.00;;;;;;6276356;28;20235;-57
2022/07/26 12:32:02;;;;;;;3.43;3.00;;;23.10;1.00;;;;;;6279531;28;20364;-56
2022/07/26 12:35:07;;;;;;;3.33;3.00;;;22.50;1.00;;;;;;6263729;28;20238;-56
2022/07/26 12:38:10;;;;;;;3.43;3.10;;;21.90;1.00;;;;;;6281433;28;20400;-57
2022/07/26 12:41:31;;;;;;;3.23;3.03;;;21.50;1.00;;;;;;6271858;28;20637;-58
2022/07/26 12:44:34;;;;;;;3.83;3.27;;;21.10;1.00;;;;;;6281929;28;20267;-57
2022/07/26 12:47:39;;;;;;;3.30;3.20;;;20.80;1.00;;;;;;6284466;28;20237;-55
2022/07/26 12:50:42;;;;;;;3.47;3.23;;;20.40;1.00;;;;;;6275911;28;20237;-55
2022/07/26 12:53:45;;;;;;;3.30;3.10;;;20.20;1.00;;;;;;6282104;28;20357;-54
2022/07/26 12:56:49;;;;;;;2.70;2.60;;;20.10;1.00;;;;;;6284865;28;20407;-56
2022/07/26 12:59:52;;;;;;;2.83;2.80;;;20.10;1.00;;;;;;6280794;28;20323;-57
2022/07/26 13:02:55;;;;;;;2.50;2.40;;;20.10;1.00;;;;;;6277073;28;20724;-56
2022/07/26 13:05:58;;;;;;;2.83;2.70;;;20.10;1.00;;;;;;6281556;28;20517;-55
2022/07/26 13:09:01;;;;;;;2.57;2.33;;;20.20;1.00;;;;;;6275769;28;20617;-57
2022/07/26 13:12:07;;;;;;;2.77;2.67;;;20.10;1.00;;;;;;6272127;28;20244;-56
2022/07/26 13:15:10;;;;;;;2.70;2.60;;;20.00;1.00;;;;;;6264228;28;20347;-56
2022/07/26 13:18:13;;;;;;;3.43;3.13;;;20.00;1.00;;;;;;6275012;28;20316;-57
2022/07/26 13:21:16;;;;;;;3.47;3.27;;;19.90;1.00;;;;;;6277341;28;20538;-57
2022/07/26 13:24:19;;;;;;;2.80;2.70;;;19.90;1.00;;;;;;6280150;28;20819;-56
2022/07/26 13:27:26;;;;;;;2.90;2.80;;;19.90;1.00;;;;;;6274396;28;20230;-55
2022/07/26 13:30:41;;;;;;;3.57;3.30;;;19.90;1.00;;;;;;6270958;28;20252;-57
2022/07/26 13:33:45;;;;;;;2.70;2.60;;;20.00;1.00;;;;;;6281751;28;20232;-60
2022/07/26 13:36:48;;;;;;;3.10;3.00;;;20.00;1.00;;;;;;6269213;28;20786;-56
2022/07/26 13:39:51;;;;;;;2.50;2.30;;;19.90;1.00;;;;;;6271815;28;20871;-56
2022/07/26 13:42:55;;;;;;;2.50;2.40;;;20.00;1.00;;;;;;6278254;28;20239;-57
2022/07/26 13:45:59;;;;;;;2.30;2.20;;;20.10;1.00;;;;;;6277444;28;20608;-57
2022/07/26 13:49:03;;;;;;;2.53;2.37;;;20.30;1.00;;;;;;6283724;28;20679;-56
2022/07/26 13:52:06;;;;;;;2.10;2.10;;;20.50;1.00;;;;;;6276189;28;20848;-58
2022/07/26 13:55:17;;;;;;;2.40;2.20;;;20.60;1.00;;;;;;6275505;28;20229;-56
2022/07/26 13:58:21;;;;;;;2.53;2.43;;;20.70;1.00;;;;;;6272961;28;20286;-56
2022/07/26 14:01:24;;;;;;;2.20;2.20;;;20.80;1.00;;;;;;6273372;28;20320;-56
2022/07/26 14:04:47;;;;;;;2.47;2.37;;;21.00;1.00;;;;;;6289191;28;20307;-56
2022/07/26 14:07:50;;;;;;;2.47;2.30;;;21.30;1.00;;;;;;6284241;28;20315;-56
2022/07/26 14:10:53;;;;;;;2.17;2.17;;;21.40;1.00;;;;;;6269626;28;20237;-56
2022/07/26 14:13:58;;;;;;;2.50;2.40;;;21.50;1.00;;;;;;6274867;28;20503;-55
2022/07/26 14:17:00;;;;;;;2.37;2.27;;;21.50;1.00;;;;;;6292670;28;20228;-57
2022/07/26 14:20:05;;;;;;;2.27;2.27;;;21.70;1.00;;;;;;6279193;28;20360;-57
2022/07/26 14:23:08;;;;;;;2.93;2.50;;;21.70;1.00;;;;;;6283841;28;20251;-58
2022/07/26 14:26:11;;;;;;;2.47;2.37;;;21.60;1.00;;;;;;6284515;28;20975;-57
2022/07/26 14:29:15;;;;;;;2.50;2.33;;;21.70;1.00;;;;;;6268690;28;20241;-58
2022/07/26 14:32:18;;;;;;;2.90;2.70;;;21.70;1.00;;;;;;6289365;28;20229;-56
2022/07/26 14:35:24;;;;;;;2.53;2.43;;;21.90;1.00;;;;;;6285418;28;20241;-57
2022/07/26 14:38:27;;;;;;;2.27;2.27;;;22.00;1.00;;;;;;6283938;28;20233;-57
2022/07/26 14:41:32;;;;;;;2.60;2.60;;;22.10;1.00;;;;;;6286195;28;20638;-56
2022/07/26 14:44:36;;;;;;;2.80;2.73;;;22.00;1.00;;;;;;6283538;28;20225;-56
2022/07/26 14:47:46;;;;;;;2.47;2.47;;;21.90;1.00;;;;;;6281654;28;20247;-56
2022/07/26 14:50:49;;;;;;;2.30;2.13;;;21.90;1.00;;;;;;6270572;28;20246;-57
2022/07/26 14:54:12;;;;;;;2.97;2.87;;;22.10;1.00;;;;;;6282665;28;20630;-58
2022/07/26 14:57:17;;;;;;;3.73;2.67;;;22.20;1.00;;;;;;6288167;28;20965;-57
2022/07/26 15:00:22;;;;;;;2.80;2.60;;;22.30;1.00;;;;;;6273801;28;20910;-57
2022/07/26 15:03:25;;;;;;;2.60;2.50;;;22.20;1.00;;;;;;6282539;28;20234;-56
2022/07/26 15:06:28;;;;;;;3.07;2.80;;;22.20;1.00;;;;;;6285228;28;20272;-57
2022/07/26 15:09:31;;;;;;;2.90;2.70;;;22.30;1.00;;;;;;6281046;28;20328;-56
2022/07/26 15:12:34;;;;;;;2.57;2.57;;;22.40;1.00;;;;;;6279753;28;20312;-55
2022/07/26 15:15:39;;;;;;;2.17;2.17;;;22.70;1.00;;;;;;6280673;28;20237;-57
2022/07/26 15:18:42;;;;;;;2.57;2.57;;;22.60;1.00;;;;;;6282124;28;20232;-56
2022/07/26 15:21:45;;;;;;;2.43;2.33;;;22.70;1.00;;;;;;6275174;28;20289;-56
2022/07/26 15:24:48;;;;;;;1.90;1.80;;;22.70;1.00;;;;;;6277988;28;20221;-56
2022/07/26 15:27:52;;;;;;;2.20;2.10;;;22.80;1.00;;;;;;6245914;28;20309;-55
2022/07/26 15:30:56;;;;;;;2.30;2.20;;;22.80;1.00;;;;;;6264809;28;20695;-56
2022/07/26 15:33:59;;;;;;;2.53;2.33;;;23.10;1.00;;;;;;6258573;28;20292;-59
2022/07/26 15:37:02;;;;;;;1.90;1.80;;;23.20;1.00;;;;;;6264470;28;20230;-56
2022/07/26 15:40:06;;;;;;;2.93;1.70;;;23.20;1.00;;;;;;6273512;28;20656;-58
2022/07/26 15:43:09;;;;;;;1.83;1.67;;;23.30;1.00;;;;;;6276089;28;20830;-56
2022/07/26 15:46:14;;;;;;;2.70;2.00;;;23.30;1.00;;;;;;6269149;28;20234;-56
2022/07/26 15:49:18;;;;;;;1.80;1.80;;;23.20;1.00;;;;;;6289894;28;20436;-57
2022/07/26 15:52:21;;;;;;;1.80;1.80;;;23.30;1.00;;;;;;6275651;28;20233;-58
2022/07/26 15:55:24;;;;;;;1.93;1.80;;;23.30;1.00;;;;;;6284991;28;20244;-56
2022/07/26 15:58:28;;;;;;;2.00;2.00;;;23.30;1.00;;;;;;6283017;28;20241;-57
2022/07/26 16:01:33;;;;;;;1.80;1.70;;;23.30;1.00;;;;;;6276671;28;20739;-56
2022/07/26 16:04:36;;;;;;;1.60;1.57;;;23.10;1.00;;;;;;6290214;28;20535;-56
2022/07/26 16:07:40;;;;;;;1.60;1.60;;;23.00;1.00;;;;;;6280609;28;20248;-58
2022/07/26 16:10:43;;;;;;;1.60;1.60;;;22.80;1.00;;;;;;6276916;28;20631;-55
2022/07/26 16:13:46;;;;;;;1.50;1.50;;;22.70;1.00;;;;;;6280095;28;20517;-57
2022/07/26 16:16:50;;;;;;;1.77;1.73;;;22.60;1.00;;;;;;6290082;28;20842;-57